Time;durP1;ratioP1;P1;durP2;ratioP2;P2;SDS_P1;SDS_P2;PMS_P1;PMS_P2;Temp;Humidity;BMP_temperature;BMP_pressure;BME280_temperature;BME280_humidity;BME280_pressure;Samples;Min_cycle;Max_cycle;Signal;HPM_P1;HPM_P2
2021/03/30 00:02:20;;;;;;;;;;;;;;;6.42;48.24;101736.38;1781688;80;20349;-69
2021/03/30 00:04:47;;;;;;;;;;;;;;;6.38;48.34;101737.89;1766837;80;20241;-70
2021/03/30 00:07:17;;;;;;;;;;;;;;;6.33;48.51;101739.37;1771174;80;21355;-69
2021/03/30 00:09:45;;;;;;;;;;;;;;;6.30;48.57;101744.28;1756192;80;20245;-69
2021/03/30 00:12:12;;;;;;;;;;;;;;;6.27;48.84;101748.36;1771621;80;21900;-69
2021/03/30 00:14:42;;;;;;;;;;;;;;;6.23;49.15;101748.52;1756086;80;20241;-69
2021/03/30 00:17:12;;;;;;;;;;;;;;;6.17;49.46;101751.38;1754449;80;20216;-69
2021/03/30 00:19:40;;;;;;;;;;;;;;;6.10;49.72;101749.47;1755940;81;21197;-69
2021/03/30 00:22:08;;;;;;;;;;;;;;;6.07;49.96;101752.64;1756226;80;20276;-69
2021/03/30 00:24:35;;;;;;;;;;;;;;;6.03;50.19;101751.92;1777953;80;22073;-69
2021/03/30 00:27:04;;;;;;;;;;;;;;;6.00;50.29;101752.05;1762342;80;20357;-69
2021/03/30 00:29:42;;;;;;;;;;;;;;;5.99;50.56;101751.66;1780954;80;20214;-69
2021/03/30 00:32:02;;;;;;;;;;;;;;;5.98;50.88;101750.80;1780353;80;20495;-69
2021/03/30 00:34:29;;;;;;;;;;;;;;;5.97;51.16;101749.52;1768603;80;20234;-69
2021/03/30 00:37:00;;;;;;;;;;;;;;;5.94;51.39;101747.03;1784380;80;21907;-70
2021/03/30 00:39:27;;;;;;;;;;;;;;;5.91;51.52;101755.87;1759219;80;20356;-68
2021/03/30 00:41:55;;;;;;;;;;;;;;;5.89;51.78;101752.89;1755427;80;20291;-68
2021/03/30 00:44:22;;;;;;;;;;;;;;;5.85;51.97;101756.52;1755063;80;22621;-68
2021/03/30 00:46:50;;;;;;;;;;;;;;;5.81;52.06;101759.72;1785094;80;20222;-68
2021/03/30 00:49:18;;;;;;;;;;;;;;;5.75;52.27;101760.80;1785165;80;22801;-70
2021/03/30 00:51:47;;;;;;;;;;;;;;;5.72;52.45;101761.38;1776898;80;20389;-70
2021/03/30 00:54:35;;;;;;;;;;;;;;;5.67;52.64;101759.36;1781089;80;20723;-70
2021/03/30 00:57:10;;;;;;;;;;;;;;;5.60;52.92;101762.69;1770399;80;20302;-69
2021/03/30 00:59:37;;;;;;;;;;;;;;;5.53;53.05;101758.58;1781576;80;20267;-69
2021/03/30 01:02:05;;;;;;;;;;;;;;;5.46;53.20;101759.23;1762981;80;21894;-70
2021/03/30 01:04:32;;;;;;;;;;;;;;;5.42;53.39;101751.11;1757032;80;20364;-69
2021/03/30 01:07:00;;;;;;;;;;;;;;;5.36;53.54;101759.17;1765916;81;20247;-70
2021/03/30 01:09:42;;;;;;;;;;;;;;;5.30;53.78;101760.69;1739242;81;20501;-69
2021/03/30 01:12:32;;;;;;;;;;;;;;;5.22;54.04;101761.89;1740117;81;20233;-70
2021/03/30 01:15:16;;;;;;;;;;;;;;;5.12;54.35;101760.91;1781160;79;23005;-70
2021/03/30 01:17:55;;;;;;;;;;;;;;;5.01;54.66;101762.16;1765904;81;20273;-69
2021/03/30 01:20:38;;;;;;;;;;;;;;;4.95;54.93;101759.31;1752317;81;20388;-69
2021/03/30 01:23:17;;;;;;;;;;;;;;;4.92;55.15;101763.31;1737769;81;20479;-69
2021/03/30 01:25:48;;;;;;;;;;;;;;;4.92;55.36;101763.31;1738875;81;20221;-68
2021/03/30 01:28:19;;;;;;;;;;;;;;;4.91;55.44;101762.92;1764624;81;22072;-68
2021/03/30 01:30:47;;;;;;;;;;;;;;;4.88;55.48;101763.03;1737640;81;20497;-69
2021/03/30 01:33:16;;;;;;;;;;;;;;;4.84;55.58;101761.44;1737586;81;20277;-69
2021/03/30 01:35:43;;;;;;;;;;;;;;;4.79;55.79;101765.50;1739345;81;21231;-70
2021/03/30 01:38:11;;;;;;;;;;;;;;;4.74;56.00;101766.13;1764992;81;20252;-70
2021/03/30 01:40:39;;;;;;;;;;;;;;;4.69;56.08;101769.33;1767838;81;22811;-69
2021/03/30 01:43:07;;;;;;;;;;;;;;;4.64;56.12;101775.64;1756527;81;20442;-69
2021/03/30 01:45:34;;;;;;;;;;;;;;;4.57;56.19;101773.20;1737445;82;20242;-70
2021/03/30 01:48:02;;;;;;;;;;;;;;;4.50;56.34;101767.75;1744861;81;20470;-70
2021/03/30 01:50:29;;;;;;;;;;;;;;;4.45;56.30;101769.68;1768280;81;20232;-69
2021/03/30 01:52:57;;;;;;;;;;;;;;;4.40;56.33;101771.56;1767397;81;23347;-68
2021/03/30 01:55:25;;;;;;;;;;;;;;;4.33;56.42;101767.88;1767435;81;20400;-69
2021/03/30 01:57:54;;;;;;;;;;;;;;;4.24;56.54;101766.40;1752566;81;20215;-68
2021/03/30 02:00:27;;;;;;;;;;;;;;;4.14;56.67;101772.37;1748296;81;20369;-69
2021/03/30 02:02:56;;;;;;;;;;;;;;;4.04;56.81;101777.47;1738036;82;20222;-69
2021/03/30 02:05:23;;;;;;;;;;;;;;;3.95;56.92;101770.75;1755730;80;22110;-69
2021/03/30 02:07:53;;;;;;;;;;;;;;;3.85;57.03;101771.92;1758707;81;20794;-68
2021/03/30 02:10:31;;;;;;;;;;;;;;;3.73;57.22;101774.45;1759376;80;20220;-69
2021/03/30 02:12:50;;;;;;;;;;;;;;;3.64;57.42;101778.63;1735645;81;20505;-69
2021/03/30 02:15:19;;;;;;;;;;;;;;;3.57;57.59;101788.87;1779254;80;20214;-69
2021/03/30 02:18:07;;;;;;;;;;;;;;;3.49;57.92;101782.14;1772581;80;21838;-69
2021/03/30 02:20:42;;;;;;;;;;;;;;;3.37;58.13;101782.85;1774458;80;21171;-69
2021/03/30 02:23:12;;;;;;;;;;;;;;;3.28;58.38;101784.86;1758791;81;20228;-69
2021/03/30 02:25:42;;;;;;;;;;;;;;;3.23;58.55;101790.66;1779653;80;20471;-69
2021/03/30 02:28:12;;;;;;;;;;;;;;;3.16;58.77;101784.73;1782220;80;20968;-69
2021/03/30 02:30:39;;;;;;;;;;;;;;;3.10;58.88;101786.22;1785232;80;22090;-69
2021/03/30 02:33:08;;;;;;;;;;;;;;;3.06;59.02;101783.27;1788483;80;20313;-69
2021/03/30 02:35:37;;;;;;;;;;;;;;;2.98;59.28;101786.06;1787804;80;20267;-69
2021/03/30 02:38:05;;;;;;;;;;;;;;;2.91;59.50;101786.28;1778987;80;20302;-69
2021/03/30 02:40:34;;;;;;;;;;;;;;;2.84;59.65;101792.09;1733877;80;20208;-69
2021/03/30 02:43:01;;;;;;;;;;;;;;;2.77;59.79;101792.67;1780410;80;21903;-69
2021/03/30 02:45:30;;;;;;;;;;;;;;;2.70;59.92;101792.86;1758827;80;20386;-69
2021/03/30 02:48:00;;;;;;;;;;;;;;;2.65;60.08;101797.34;1758856;80;20225;-69
2021/03/30 02:50:27;;;;;;;;;;;;;;;2.59;60.21;101792.67;1759658;80;20323;-69
2021/03/30 02:52:55;;;;;;;;;;;;;;;2.54;60.40;101798.91;1781635;80;20225;-69
2021/03/30 02:55:23;;;;;;;;;;;;;;;2.46;60.60;101799.52;1767498;80;21990;-68
2021/03/30 02:57:51;;;;;;;;;;;;;;;2.39;60.79;101804.46;1780205;80;21033;-69
2021/03/30 03:00:19;;;;;;;;;;;;;;;2.35;60.98;101804.98;1764662;80;20264;-69
2021/03/30 03:02:47;;;;;;;;;;;;;;;2.27;61.24;101806.91;1786607;80;20315;-68
2021/03/30 03:05:15;;;;;;;;;;;;;;;2.21;61.53;101799.20;1772831;80;20244;-68
2021/03/30 03:07:42;;;;;;;;;;;;;;;2.19;61.73;101803.60;1747920;80;23041;-69
2021/03/30 03:10:10;;;;;;;;;;;;;;;2.15;61.83;101798.05;1765150;80;20252;-68
2021/03/30 03:12:38;;;;;;;;;;;;;;;2.12;62.02;101797.66;1769028;80;20237;-68
2021/03/30 03:15:07;;;;;;;;;;;;;;;2.08;62.17;101803.84;1796567;80;20558;-68
2021/03/30 03:17:35;;;;;;;;;;;;;;;2.04;62.41;101804.81;1795629;80;20222;-69
2021/03/30 03:20:04;;;;;;;;;;;;;;;2.01;62.69;101807.45;1796571;80;22065;-68
2021/03/30 03:22:32;;;;;;;;;;;;;;;1.97;62.91;101804.52;1790265;80;20372;-68
2021/03/30 03:24:59;;;;;;;;;;;;;;;1.94;63.08;101805.89;1769961;80;20240;-68
2021/03/30 03:27:29;;;;;;;;;;;;;;;1.89;63.17;101800.77;1791490;80;20281;-68
2021/03/30 03:29:56;;;;;;;;;;;;;;;1.84;63.27;101810.88;1793693;80;20222;-68
2021/03/30 03:32:24;;;;;;;;;;;;;;;1.80;63.50;101813.11;1796602;80;22645;-68
2021/03/30 03:34:51;;;;;;;;;;;;;;;1.76;63.71;101807.56;1782757;80;20841;-68
2021/03/30 03:37:19;;;;;;;;;;;;;;;1.74;63.92;101808.91;1765286;80;20250;-69
2021/03/30 03:39:46;;;;;;;;;;;;;;;1.72;64.08;101806.30;1764986;81;20312;-68
2021/03/30 03:42:14;;;;;;;;;;;;;;;1.72;64.22;101807.61;1789297;79;20218;-69
2021/03/30 03:44:41;;;;;;;;;;;;;;;1.71;64.41;101814.16;1796514;80;20439;-69
2021/03/30 03:47:09;;;;;;;;;;;;;;;1.70;64.60;101815.05;1796341;80;20306;-70
2021/03/30 03:49:36;;;;;;;;;;;;;;;1.68;64.80;101816.38;1765664;80;20218;-69
2021/03/30 03:52:06;;;;;;;;;;;;;;;1.68;65.09;101814.22;1765124;80;20272;-70
2021/03/30 03:54:34;;;;;;;;;;;;;;;1.66;65.30;101818.16;1764936;80;20399;-69
2021/03/30 03:57:08;;;;;;;;;;;;;;;1.65;65.44;101813.84;1769663;79;22090;-68
2021/03/30 03:59:36;;;;;;;;;;;;;;;1.71;65.72;101816.31;1764979;80;20218;-69
2021/03/30 04:02:21;;;;;;;;;;;;;;;1.81;65.86;101820.04;1780369;80;20214;-70
2021/03/30 04:05:11;;;;;;;;;;;;;;;1.84;65.87;101817.39;1769424;80;20399;-68
2021/03/30 04:07:49;;;;;;;;;;;;;;;1.88;65.91;101819.03;1736997;80;20410;-69
2021/03/30 04:10:19;;;;;;;;;;;;;;;1.92;65.99;101821.97;1768923;80;21924;-70
2021/03/30 04:12:46;;;;;;;;;;;;;;;1.99;66.00;101822.27;1775137;80;20218;-69
2021/03/30 04:15:18;;;;;;;;;;;;;;;2.03;65.96;101820.03;1763883;80;20264;-69
2021/03/30 04:17:46;;;;;;;;;;;;;;;2.07;65.92;101825.58;1759933;80;20568;-69
2021/03/30 04:20:15;;;;;;;;;;;;;;;2.12;65.86;101830.23;1759144;80;20225;-69
2021/03/30 04:22:46;;;;;;;;;;;;;;;2.19;65.78;101830.97;1761421;80;22076;-70
2021/03/30 04:25:12;;;;;;;;;;;;;;;2.26;65.64;101836.03;1760736;80;20279;-69
2021/03/30 04:27:39;;;;;;;;;;;;;;;2.33;65.50;101835.46;1760231;80;20248;-69
2021/03/30 04:30:07;;;;;;;;;;;;;;;2.41;65.39;101839.17;1762544;80;21249;-69
2021/03/30 04:32:35;;;;;;;;;;;;;;;2.50;65.26;101833.75;1744012;80;20224;-70
2021/03/30 04:35:03;;;;;;;;;;;;;;;2.55;65.11;101843.66;1741443;80;22066;-70
2021/03/30 04:37:31;;;;;;;;;;;;;;;2.63;65.09;101844.34;1761020;80;20307;-72
2021/03/30 04:39:58;;;;;;;;;;;;;;;2.71;65.05;101842.42;1763923;80;20276;-70
2021/03/30 04:42:26;;;;;;;;;;;;;;;2.78;65.00;101849.19;1761290;80;20309;-69
2021/03/30 04:44:55;;;;;;;;;;;;;;;2.85;65.08;101845.55;1759577;80;20218;-70
2021/03/30 04:47:23;;;;;;;;;;;;;;;2.93;65.00;101853.64;1760413;80;23091;-71
2021/03/30 04:49:51;;;;;;;;;;;;;;;2.99;64.95;101856.97;1760987;80;20356;-71
2021/03/30 04:52:18;;;;;;;;;;;;;;;3.05;64.91;101854.19;1776512;80;20461;-70
2021/03/30 04:54:46;;;;;;;;;;;;;;;3.12;64.79;101854.45;1774129;80;20470;-71
2021/03/30 04:57:13;;;;;;;;;;;;;;;3.19;64.69;101853.87;1761530;80;20350;-70
2021/03/30 04:59:41;;;;;;;;;;;;;;;3.26;64.51;101849.33;1761558;80;21902;-71
2021/03/30 05:02:08;;;;;;;;;;;;;;;3.34;64.37;101855.22;1761405;80;20275;-71
2021/03/30 05:04:36;;;;;;;;;;;;;;;3.39;64.17;101850.30;1761298;80;20331;-71
2021/03/30 05:07:04;;;;;;;;;;;;;;;3.47;64.01;101855.29;1768993;80;20457;-70
2021/03/30 05:09:33;;;;;;;;;;;;;;;3.53;63.78;101859.06;1770666;80;20254;-70
2021/03/30 05:12:00;;;;;;;;;;;;;;;3.61;63.60;101861.02;1769739;80;21833;-71
2021/03/30 05:14:28;;;;;;;;;;;;;;;3.68;63.32;101861.73;1770556;80;20251;-70
2021/03/30 05:16:56;;;;;;;;;;;;;;;3.74;63.06;101865.02;1769546;80;20243;-71
2021/03/30 05:19:23;;;;;;;;;;;;;;;3.81;62.82;101864.85;1748685;80;20496;-71
2021/03/30 05:21:51;;;;;;;;;;;;;;;3.85;62.52;101859.94;1748478;80;20416;-71
2021/03/30 05:24:18;;;;;;;;;;;;;;;3.89;62.27;101865.05;1769294;80;23095;-71
2021/03/30 05:26:46;;;;;;;;;;;;;;;3.98;62.03;101866.55;1767897;80;20244;-70
2021/03/30 05:29:14;;;;;;;;;;;;;;;4.06;61.70;101871.13;1769847;79;20295;-71
2021/03/30 05:31:41;;;;;;;;;;;;;;;4.14;61.38;101863.89;1766633;80;20392;-71
2021/03/30 05:34:09;;;;;;;;;;;;;;;4.23;61.11;101864.93;1769668;80;20284;-71
2021/03/30 05:36:37;;;;;;;;;;;;;;;4.31;60.76;101863.41;1771091;80;22840;-71
2021/03/30 05:39:05;;;;;;;;;;;;;;;4.38;60.37;101871.94;1772032;80;20399;-71
2021/03/30 05:41:33;;;;;;;;;;;;;;;4.44;60.08;101873.92;1771801;80;20224;-70
2021/03/30 05:44:01;;;;;;;;;;;;;;;4.51;59.92;101871.96;1787352;80;20308;-70
2021/03/30 05:46:29;;;;;;;;;;;;;;;4.57;59.69;101871.78;1765561;80;20250;-70
2021/03/30 05:49:00;;;;;;;;;;;;;;;4.64;59.38;101865.47;1770014;79;22971;-70
2021/03/30 05:51:27;;;;;;;;;;;;;;;4.71;59.15;101868.73;1788706;80;20339;-70
2021/03/30 05:53:58;;;;;;;;;;;;;;;4.77;58.70;101867.23;1768450;79;20236;-71
2021/03/30 05:56:26;;;;;;;;;;;;;;;4.81;58.21;101866.22;1770295;80;20316;-72
2021/03/30 05:58:56;;;;;;;;;;;;;;;4.88;58.21;101869.06;1765118;80;20462;-70
2021/03/30 06:01:24;;;;;;;;;;;;;;;4.94;58.02;101870.19;1767075;80;22065;-71
2021/03/30 06:03:52;;;;;;;;;;;;;;;5.02;57.82;101871.22;1761989;79;20213;-73
2021/03/30 06:06:20;;;;;;;;;;;;;;;5.07;57.71;101870.18;1769473;80;20249;-69
2021/03/30 06:08:48;;;;;;;;;;;;;;;5.14;57.35;101874.32;1770669;80;20485;-72
2021/03/30 06:11:15;;;;;;;;;;;;;;;5.17;57.14;101876.83;1768725;80;20413;-72
2021/03/30 06:13:48;;;;;;;;;;;;;;;5.26;56.90;101880.91;1769619;79;22075;-71
2021/03/30 06:16:36;;;;;;;;;;;;;;;5.32;56.42;101878.55;1776760;80;20230;-70
2021/03/30 06:19:13;;;;;;;;;;;;;;;5.36;56.14;101882.31;1768627;79;20235;-76
2021/03/30 06:21:50;;;;;;;;;;;;;;;5.45;55.68;101877.22;1776738;79;21382;-71
2021/03/30 06:24:29;;;;;;;;;;;;;;;5.54;55.39;101880.84;1773351;79;20234;-71
2021/03/30 06:26:57;;;;;;;;;;;;;;;5.62;55.27;101872.26;1776564;80;20206;-71
2021/03/30 06:29:37;;;;;;;;;;;;;;;5.70;55.05;101870.69;1770976;79;20445;-70
2021/03/30 06:32:08;;;;;;;;;;;;;;;5.75;54.93;101875.30;1767733;80;21029;-70
2021/03/30 06:34:36;;;;;;;;;;;;;;;5.83;54.82;101875.03;1765251;81;20258;-70
2021/03/30 06:37:10;;;;;;;;;;;;;;;5.94;54.70;101880.31;1772048;80;20241;-71
2021/03/30 06:39:45;;;;;;;;;;;;;;;6.07;54.75;101878.09;1841185;76;20259;-70
2021/03/30 06:42:20;;;;;;;;;;;;;;;6.11;54.81;101882.33;1797340;79;20216;-69
2021/03/30 06:44:45;;;;;;;;;;;;;;;6.21;55.14;101885.47;1780466;79;22318;-69
2021/03/30 06:47:19;;;;;;;;;;;;;;;6.28;54.90;101883.03;1765946;79;21241;-71
2021/03/30 06:50:02;;;;;;;;;;;;;;;6.26;54.87;101884.37;1774966;79;20238;-71
2021/03/30 06:52:34;;;;;;;;;;;;;;;6.18;54.58;101888.22;1778115;79;20219;-68
2021/03/30 06:55:04;;;;;;;;;;;;;;;6.10;54.88;101885.88;1755323;79;20246;-69
2021/03/30 06:57:38;;;;;;;;;;;;;;;6.11;55.22;101892.83;1778113;79;21869;-70
2021/03/30 07:00:20;;;;;;;;;;;;;;;6.20;54.96;101893.80;1781942;79;20231;-68
2021/03/30 07:02:58;;;;;;;;;;;;;;;6.24;54.59;101905.03;1784516;79;20238;-69
2021/03/30 07:05:43;;;;;;;;;;;;;;;6.26;54.57;101905.36;1754876;79;20222;-72
2021/03/30 07:08:14;;;;;;;;;;;;;;;6.27;54.61;101904.48;1784049;79;20214;-70
2021/03/30 07:10:47;;;;;;;;;;;;;;;6.25;54.72;101906.73;1804302;79;23004;-70
2021/03/30 07:13:18;;;;;;;;;;;;;;;6.21;54.95;101914.33;1762416;80;20222;-71
2021/03/30 07:15:46;;;;;;;;;;;;;;;6.26;55.04;101916.31;1777079;80;20407;-71
2021/03/30 07:18:23;;;;;;;;;;;;;;;6.34;55.00;101911.64;1741830;80;20238;-69
2021/03/30 07:21:03;;;;;;;;;;;;;;;6.48;54.74;101919.02;1729676;81;20235;-69
2021/03/30 07:23:33;;;;;;;;;;;;;;;6.67;54.54;101920.49;1754631;80;22035;-69
2021/03/30 07:26:12;;;;;;;;;;;;;;;6.81;53.08;101921.65;1720993;80;21285;-70
2021/03/30 07:29:03;;;;;;;;;;;;;;;6.85;51.87;101923.27;1719212;80;20199;-72
2021/03/30 07:31:51;;;;;;;;;;;;;;;6.85;51.31;101928.52;1776418;80;20228;-69
2021/03/30 07:34:23;;;;;;;;;;;;;;;6.93;51.49;101924.70;1740818;80;20401;-70
2021/03/30 07:37:05;;;;;;;;;;;;;;;7.06;51.57;101926.80;1739141;81;21928;-69
2021/03/30 07:39:33;;;;;;;;;;;;;;;7.21;50.73;101925.77;1751389;81;20346;-69
2021/03/30 07:42:02;;;;;;;;;;;;;;;7.22;50.66;101932.28;1753192;81;20495;-69
2021/03/30 07:44:29;;;;;;;;;;;;;;;7.27;50.46;101936.05;1723892;81;20329;-70
2021/03/30 07:46:57;;;;;;;;;;;;;;;7.38;50.26;101936.46;1749866;80;20235;-68
2021/03/30 07:49:28;;;;;;;;;;;;;;;7.44;49.46;101932.28;1737471;82;22080;-69
2021/03/30 07:51:56;;;;;;;;;;;;;;;7.50;50.05;101943.83;1751028;80;20241;-70
2021/03/30 07:54:24;;;;;;;;;;;;;;;7.61;49.32;101938.13;1724436;83;20227;-71
2021/03/30 07:56:53;;;;;;;;;;;;;;;7.71;48.56;101938.98;1742705;80;20260;-69
2021/03/30 07:59:46;;;;;;;;;;;;;;;7.81;48.44;101938.59;1755931;80;20224;-69
2021/03/30 08:02:21;;;;;;;;;;;;;;;7.87;48.14;101941.82;1750842;82;21891;-70
2021/03/30 08:05:09;;;;;;;;;;;;;;;7.99;47.98;101945.69;1740807;81;20376;-81
2021/03/30 08:07:49;;;;;;;;;;;;;;;8.07;47.53;101948.00;1750025;80;20483;-72
2021/03/30 08:10:32;;;;;;;;;;;;;;;8.14;47.41;101956.02;1753891;81;20980;-69
2021/03/30 08:13:27;;;;;;;;;;;;;;;8.26;46.34;101951.52;1737864;81;20223;-70
2021/03/30 08:16:08;;;;;;;;;;;;;;;8.32;46.00;101952.58;1744776;82;22058;-70
2021/03/30 08:18:37;;;;;;;;;;;;;;;8.35;45.32;101948.52;1692994;83;20324;-69
2021/03/30 08:21:15;;;;;;;;;;;;;;;8.23;44.64;101952.98;1744795;80;20298;-68
2021/03/30 08:23:56;;;;;;;;;;;;;;;8.09;44.13;101952.26;1739471;82;20265;-69
2021/03/30 08:26:26;;;;;;;;;;;;;;;7.94;44.99;101957.74;1730748;81;20404;-68
2021/03/30 08:29:01;;;;;;;;;;;;;;;8.07;45.59;101958.06;1733996;81;21387;-68
2021/03/30 08:31:46;;;;;;;;;;;;;;;8.27;45.53;101954.55;1739305;80;20371;-68
2021/03/30 08:34:22;;;;;;;;;;;;;;;8.45;44.10;101952.44;1714540;82;20504;-68
2021/03/30 08:36:51;;;;;;;;;;;;;;;8.43;42.71;101951.66;1716504;82;21127;-68
2021/03/30 08:39:23;;;;;;;;;;;;;;;8.43;42.94;101947.70;1730324;81;20234;-69
2021/03/30 08:41:55;;;;;;;;;;;;;;;8.41;41.85;101947.39;1720826;82;22015;-69
2021/03/30 08:44:39;;;;;;;;;;;;;;;8.32;42.14;101947.31;1752455;81;20488;-69
2021/03/30 08:47:09;;;;;;;;;;;;;;;8.27;41.75;101947.50;1721370;81;20224;-70
2021/03/30 08:49:39;;;;;;;;;;;;;;;8.28;41.94;101943.94;1696756;82;20249;-70
2021/03/30 08:52:14;;;;;;;;;;;;;;;8.41;41.98;101942.98;1738231;81;20218;-69
2021/03/30 08:54:52;;;;;;;;;;;;;;;8.63;42.17;101941.99;1742028;81;22190;-69
2021/03/30 08:57:31;;;;;;;;;;;;;;;8.83;41.25;101935.33;1745908;81;20383;-72
2021/03/30 08:59:56;;;;;;;;;;;;;;;8.96;40.51;101936.44;1725736;81;20302;-71
2021/03/30 09:02:25;;;;;;;;;;;;;;;9.09;40.46;101933.62;1736412;81;20218;-70
2021/03/30 09:04:53;;;;;;;;;;;;;;;9.16;40.08;101931.53;1716904;82;20268;-72
2021/03/30 09:07:21;;;;;;;;;;;;;;;9.21;39.55;101928.22;1727625;81;22152;-71
2021/03/30 09:09:48;;;;;;;;;;;;;;;9.26;40.24;101934.56;1742769;81;20259;-70
2021/03/30 09:12:20;;;;;;;;;;;;;;;9.38;39.10;101930.03;1759688;81;20234;-71
2021/03/30 09:15:00;;;;;;;;;;;;;;;9.39;38.92;101935.69;1708259;84;22317;-72
2021/03/30 09:17:28;;;;;;;;;;;;;;;9.53;37.97;101927.08;1754131;81;20550;-71
2021/03/30 09:20:00;;;;;;;;;;;;;;;9.64;38.48;101926.91;1763124;81;22223;-71
2021/03/30 09:22:33;;;;;;;;;;;;;;;9.80;38.54;101926.15;1746848;81;20396;-73
2021/03/30 09:27:47;;;;;;;;;;;;;;;10.03;37.67;101927.11;1708417;84;20275;-69
2021/03/30 09:30:18;;;;;;;;;;;;;;;10.08;37.04;101931.70;1727890;81;20218;-72
2021/03/30 09:32:47;;;;;;;;;;;;;;;10.12;37.64;101927.95;1711591;82;22170;-72
2021/03/30 09:35:16;;;;;;;;;;;;;;;10.28;37.46;101930.20;1724364;82;21244;-69
2021/03/30 09:37:52;;;;;;;;;;;;;;;10.46;36.70;101927.05;1738164;81;20214;-69
2021/03/30 09:40:24;;;;;;;;;;;;;;;10.59;35.48;101927.22;1737932;81;20670;-71
2021/03/30 09:42:52;;;;;;;;;;;;;;;10.68;34.76;101921.44;1733024;81;20213;-69
2021/03/30 09:45:23;;;;;;;;;;;;;;;10.68;35.29;101917.47;1740850;81;22132;-68
2021/03/30 09:47:51;;;;;;;;;;;;;;;10.76;34.58;101919.23;1734269;81;21200;-70
2021/03/30 09:50:20;;;;;;;;;;;;;;;10.77;35.87;101917.44;1730166;82;20324;-70
2021/03/30 09:52:49;;;;;;;;;;;;;;;10.97;35.94;101907.91;1724375;82;20281;-71
2021/03/30 09:55:32;;;;;;;;;;;;;;;11.12;35.25;101911.49;1723891;81;20487;-70
2021/03/30 09:58:04;;;;;;;;;;;;;;;11.16;34.35;101909.05;1729248;81;22090;-70
2021/03/30 10:00:34;;;;;;;;;;;;;;;11.27;35.53;101913.71;1726252;81;20381;-71
2021/03/30 10:03:02;;;;;;;;;;;;;;;11.50;33.40;101912.39;1707000;81;20496;-77
2021/03/30 10:05:33;;;;;;;;;;;;;;;11.54;32.62;101910.78;1705826;81;20290;-71
2021/03/30 10:08:02;;;;;;;;;;;;;;;11.49;32.93;101906.72;1737817;80;20222;-70
2021/03/30 10:10:55;;;;;;;;;;;;;;;11.55;32.94;101913.81;1737707;81;22960;-71
2021/03/30 10:13:26;;;;;;;;;;;;;;;11.67;31.66;101912.22;1726672;81;21294;-71
2021/03/30 10:15:55;;;;;;;;;;;;;;;11.73;32.87;101904.78;1741860;81;20274;-73
2021/03/30 10:18:25;;;;;;;;;;;;;;;11.69;31.87;101900.63;1722297;82;21100;-72
2021/03/30 10:20:59;;;;;;;;;;;;;;;11.76;32.76;101897.97;1739934;80;20218;-71
2021/03/30 10:23:30;;;;;;;;;;;;;;;11.86;32.44;101902.27;1733892;81;22685;-70
2021/03/30 10:26:11;;;;;;;;;;;;;;;11.90;32.90;101893.69;1704768;82;20386;-71
2021/03/30 10:28:39;;;;;;;;;;;;;;;11.96;33.57;101896.79;1737008;81;20235;-69
2021/03/30 10:31:22;;;;;;;;;;;;;;;12.06;34.10;101900.20;1737491;81;20250;-70
2021/03/30 10:33:49;;;;;;;;;;;;;;;12.36;32.45;101885.56;1754727;81;20232;-70
2021/03/30 10:36:15;;;;;;;;;;;;;;;12.46;32.65;101888.00;1767273;81;21899;-70
2021/03/30 10:39:07;;;;;;;;;;;;;;;12.53;33.67;101886.17;1767939;79;20220;-69
2021/03/30 10:41:40;;;;;;;;;;;;;;;12.78;33.74;101875.33;1735513;81;20218;-70
2021/03/30 10:44:09;;;;;;;;;;;;;;;13.14;33.38;101870.75;1736989;82;20270;-71
2021/03/30 10:46:42;;;;;;;;;;;;;;;13.37;32.21;101874.06;1739545;81;20214;-70
2021/03/30 10:49:10;;;;;;;;;;;;;;;13.44;32.55;101871.38;1737977;81;21896;-70
2021/03/30 10:51:41;;;;;;;;;;;;;;;13.36;31.82;101869.72;1712833;82;20355;-74
2021/03/30 10:54:10;;;;;;;;;;;;;;;13.22;32.29;101867.16;1730499;81;20293;-70
2021/03/30 10:56:38;;;;;;;;;;;;;;;13.30;32.54;101862.63;1737633;82;20467;-71
2021/03/30 10:59:07;;;;;;;;;;;;;;;13.51;31.29;101860.33;1734404;81;20239;-71
2021/03/30 11:01:35;;;;;;;;;;;;;;;13.59;30.56;101857.52;1740530;81;22061;-70
2021/03/30 11:04:03;;;;;;;;;;;;;;;13.52;29.70;101856.75;1732022;81;22526;-71
2021/03/30 11:06:31;;;;;;;;;;;;;;;13.60;31.10;101853.06;1694681;82;20390;-71
2021/03/30 11:08:59;;;;;;;;;;;;;;;13.77;28.73;101852.75;1741395;80;20275;-70
2021/03/30 11:11:26;;;;;;;;;;;;;;;13.65;29.50;101852.28;1699888;83;20247;-70
2021/03/30 11:13:54;;;;;;;;;;;;;;;13.38;29.26;101848.38;1751104;80;21895;-71
2021/03/30 11:16:21;;;;;;;;;;;;;;;13.41;30.09;101848.16;1755329;79;20351;-71
2021/03/30 11:18:49;;;;;;;;;;;;;;;13.73;28.72;101845.48;1750492;80;20503;-68
2021/03/30 11:21:16;;;;;;;;;;;;;;;13.88;27.77;101836.92;1755606;80;20473;-68
2021/03/30 11:23:45;;;;;;;;;;;;;;;13.98;29.32;101830.48;1749234;80;20841;-69
2021/03/30 11:26:14;;;;;;;;;;;;;;;14.26;29.56;101834.20;1755405;81;22966;-69
2021/03/30 11:28:45;;;;;;;;;;;;;;;14.58;29.88;101833.73;1754593;80;20378;-69
2021/03/30 11:31:47;;;;;;;;;;;;;;;14.84;29.57;101836.64;1753820;80;20856;-70
2021/03/30 11:33:48;;;;;;;;;;;;;;;15.20;29.91;101832.20;1748477;80;21245;-69
2021/03/30 11:36:15;;;;;;;;;;;;;;;15.53;29.90;101823.91;1750388;80;20157;-71
2021/03/30 11:38:42;;;;;;;;;;;;;;;15.84;29.18;101820.61;1753186;80;21873;-75
2021/03/30 11:41:09;;;;;;;;;;;;;;;16.03;28.86;101819.52;1762727;80;20249;-70
2021/03/30 11:43:37;;;;;;;;;;;;;;;16.06;28.42;101808.25;1780814;79;20212;-70
2021/03/30 11:46:06;;;;;;;;;;;;;;;15.72;27.41;101820.22;1777443;80;20231;-70
2021/03/30 11:48:33;;;;;;;;;;;;;;;15.07;28.55;101814.14;1786058;80;20557;-70
2021/03/30 11:51:00;;;;;;;;;;;;;;;14.86;29.64;101809.47;1770788;80;21994;-71
2021/03/30 11:53:28;;;;;;;;;;;;;;;15.07;28.73;101808.33;1761176;81;21157;-71
2021/03/30 11:55:56;;;;;;;;;;;;;;;15.11;29.39;101812.92;1764817;80;20900;-72
2021/03/30 11:58:24;;;;;;;;;;;;;;;15.11;28.90;101805.79;1766615;80;20302;-70
2021/03/30 12:00:52;;;;;;;;;;;;;;;14.87;29.16;101803.66;1756520;80;20234;-69
2021/03/30 12:03:20;;;;;;;;;;;;;;;14.65;29.29;101801.72;1766489;80;21905;-69
2021/03/30 12:05:49;;;;;;;;;;;;;;;14.42;29.24;101802.06;1781158;79;20889;-69
2021/03/30 12:08:16;;;;;;;;;;;;;;;14.18;29.85;101796.70;1782336;79;21389;-69
2021/03/30 12:10:44;;;;;;;;;;;;;;;14.13;30.14;101788.22;1753808;79;20766;-69
2021/03/30 12:13:13;;;;;;;;;;;;;;;14.36;30.84;101783.89;1757997;79;20282;-69
2021/03/30 12:15:40;;;;;;;;;;;;;;;14.83;29.97;101784.40;1758216;81;21899;-69
2021/03/30 12:18:10;;;;;;;;;;;;;;;15.12;29.52;101780.87;1765438;79;20297;-70
2021/03/30 12:20:37;;;;;;;;;;;;;;;15.44;29.16;101781.08;1782991;79;20391;-71
2021/03/30 12:23:05;;;;;;;;;;;;;;;15.52;28.02;101777.80;1774207;79;20837;-72
2021/03/30 12:25:32;;;;;;;;;;;;;;;15.31;27.67;101775.47;1737406;81;20235;-70
2021/03/30 12:28:02;;;;;;;;;;;;;;;15.09;28.07;101772.28;1742352;81;22077;-71
2021/03/30 12:30:31;;;;;;;;;;;;;;;15.07;28.19;101764.91;1766054;81;20600;-71
2021/03/30 12:33:00;;;;;;;;;;;;;;;15.06;28.51;101772.05;1763809;81;20503;-69
2021/03/30 12:35:27;;;;;;;;;;;;;;;15.10;28.71;101764.18;1763417;80;20498;-70
2021/03/30 12:37:59;;;;;;;;;;;;;;;15.01;27.60;101768.02;1751633;80;20412;-70
2021/03/30 12:40:35;;;;;;;;;;;;;;;14.71;28.53;101765.86;1759268;80;22895;-69
2021/03/30 12:43:03;;;;;;;;;;;;;;;14.76;29.59;101765.02;1751130;80;20211;-70
2021/03/30 12:45:34;;;;;;;;;;;;;;;15.12;29.82;101764.05;1746268;80;20216;-72
2021/03/30 12:48:01;;;;;;;;;;;;;;;15.68;28.68;101757.02;1751950;80;20479;-68
2021/03/30 12:50:29;;;;;;;;;;;;;;;16.18;28.54;101747.28;1762365;80;20282;-70
2021/03/30 12:52:56;;;;;;;;;;;;;;;16.59;27.93;101747.88;1747396;80;21894;-69
2021/03/30 12:55:25;;;;;;;;;;;;;;;16.78;26.72;101743.22;1764940;80;20216;-70
2021/03/30 12:57:53;;;;;;;;;;;;;;;16.54;27.45;101741.59;1772822;80;20242;-69
2021/03/30 13:00:21;;;;;;;;;;;;;;;16.73;27.57;101744.95;1778691;80;20259;-70
2021/03/30 13:02:49;;;;;;;;;;;;;;;16.92;27.25;101736.73;1733117;80;20242;-72
2021/03/30 13:05:17;;;;;;;;;;;;;;;17.34;26.85;101733.05;1748194;80;22065;-70